createdAt,value
2023-02-21T00:00:52.938Z,20.77
2023-02-21T00:03:38.491Z,22.23
2023-02-21T00:06:27.255Z,22.13
2023-02-21T00:09:12.489Z,21.10
2023-02-21T00:12:03.800Z,22.23
2023-02-21T00:14:48.951Z,22.27
2023-02-21T00:17:34.875Z,23.67
2023-02-21T00:20:20.223Z,22.17
2023-02-21T00:23:05.520Z,22.70
2023-02-21T00:25:50.854Z,22.80
2023-02-21T00:28:37.516Z,22.70
2023-02-21T00:31:23.159Z,21.80
2023-02-21T00:34:08.399Z,20.93
2023-02-21T00:36:53.711Z,23.30
2023-02-21T00:39:39.154Z,21.87
2023-02-21T00:42:24.406Z,22.03
2023-02-21T00:45:09.663Z,21.47
2023-02-21T00:47:55.298Z,22.87
2023-02-21T00:50:40.911Z,21.83
2023-02-21T00:53:26.098Z,21.93
2023-02-21T00:56:11.848Z,23.67
2023-02-21T00:58:56.975Z,24.20
2023-02-21T01:01:42.524Z,23.80
2023-02-21T01:04:27.889Z,23.60
2023-02-21T01:07:13.034Z,23.93
2023-02-21T01:09:58.502Z,24.33
2023-02-21T01:12:43.929Z,24.83
2023-02-21T01:15:29.325Z,24.30
2023-02-21T01:18:14.495Z,25.60
2023-02-21T01:20:59.797Z,24.67
2023-02-21T01:23:45.083Z,26.80
2023-02-21T01:26:30.506Z,26.07
2023-02-21T01:29:16.109Z,25.70
2023-02-21T01:32:01.405Z,26.13
2023-02-21T01:34:46.858Z,24.47
2023-02-21T01:37:32.237Z,24.27
2023-02-21T01:40:17.710Z,24.90
2023-02-21T01:43:03.091Z,26.13
2023-02-21T01:46:01.916Z,26.57
2023-02-21T01:48:48.764Z,25.57
2023-02-21T01:51:39.528Z,24.23
2023-02-21T01:54:25.726Z,25.83
2023-02-21T01:57:11.997Z,28.00
2023-02-21T01:59:57.859Z,25.97
2023-02-21T02:02:51.662Z,24.60
2023-02-21T02:05:37.720Z,26.70
2023-02-21T02:08:23.168Z,28.67
2023-02-21T02:11:17.615Z,27.07
2023-02-21T02:14:17.726Z,26.90
2023-02-21T02:17:05.547Z,26.20
2023-02-21T02:19:44.461Z,29.13
2023-02-21T02:22:31.306Z,27.63
2023-02-21T02:25:18.036Z,29.27
2023-02-21T02:28:28.862Z,27.17
2023-02-21T02:31:32.671Z,28.60
2023-02-21T02:34:20.575Z,27.50
2023-02-21T02:36:55.959Z,25.60
2023-02-21T02:39:35.402Z,26.77
2023-02-21T02:42:26.740Z,27.10
2023-02-21T02:45:19.767Z,26.70
2023-02-21T02:47:54.823Z,29.17
2023-02-21T02:50:23.004Z,27.77
2023-02-21T02:52:52.061Z,26.23
2023-02-21T02:55:40.575Z,27.03
2023-02-21T02:58:10.347Z,27.30
2023-02-21T03:00:40.732Z,24.60
2023-02-21T03:03:35.916Z,26.80
2023-02-21T03:06:28.505Z,26.50
2023-02-21T03:09:01.824Z,26.30
2023-02-21T03:11:28.818Z,25.73
2023-02-21T03:14:12.525Z,27.13
2023-02-21T03:16:55.753Z,27.03
2023-02-21T03:19:35.619Z,24.50
2023-02-21T03:22:09.713Z,24.77
2023-02-21T03:24:38.991Z,25.00
2023-02-21T03:27:07.886Z,26.60
2023-02-21T03:29:36.828Z,24.70
2023-02-21T03:32:17.362Z,23.93
2023-02-21T03:34:44.578Z,24.70
2023-02-21T03:37:39.164Z,23.83
2023-02-21T03:40:13.282Z,22.53
2023-02-21T03:42:40.054Z,24.90
2023-02-21T03:45:07.075Z,25.10
2023-02-21T03:47:33.814Z,24.80
2023-02-21T03:50:00.537Z,22.23
2023-02-21T03:52:27.228Z,25.07
2023-02-21T03:54:53.950Z,23.27
2023-02-21T03:57:20.686Z,22.17
2023-02-21T03:59:47.538Z,23.50
2023-02-21T04:02:14.497Z,22.60
2023-02-21T04:04:41.860Z,22.40
2023-02-21T04:07:09.939Z,23.60
2023-02-21T04:09:38.773Z,24.30
2023-02-21T04:12:06.220Z,23.80
2023-02-21T04:14:32.927Z,24.43
2023-02-21T04:16:59.757Z,23.17
2023-02-21T04:19:26.487Z,26.70
2023-02-21T04:21:53.271Z,26.40
2023-02-21T04:24:20.052Z,24.93
2023-02-21T04:26:46.875Z,24.83
2023-02-21T04:29:13.862Z,24.27
2023-02-21T04:31:40.682Z,26.77
2023-02-21T04:34:12.301Z,24.80
2023-02-21T04:36:39.585Z,23.77
2023-02-21T04:39:07.203Z,23.53
2023-02-21T04:41:34.273Z,24.13
2023-02-21T04:44:01.183Z,24.30
2023-02-21T04:46:27.917Z,24.10
2023-02-21T04:48:54.801Z,23.83
2023-02-21T04:51:24.268Z,24.40
2023-02-21T04:53:51.753Z,23.80
2023-02-21T04:56:21.054Z,23.40
2023-02-21T04:58:48.229Z,25.60
2023-02-21T05:01:17.515Z,26.70
2023-02-21T05:03:44.482Z,22.33
2023-02-21T05:06:16.718Z,22.97
2023-02-21T05:08:43.459Z,22.73
2023-02-21T05:11:10.238Z,26.13
2023-02-21T05:13:36.955Z,22.00
2023-02-21T05:16:03.846Z,22.90
2023-02-21T05:18:30.552Z,25.20
2023-02-21T05:20:57.392Z,23.93
2023-02-21T05:23:35.569Z,22.80
2023-02-21T05:26:10.896Z,20.50
2023-02-21T05:28:39.175Z,21.70
2023-02-21T05:31:07.111Z,22.27
2023-02-21T05:33:34.004Z,22.80
2023-02-21T05:36:00.937Z,21.47
2023-02-21T05:38:27.745Z,22.90
2023-02-21T05:40:54.780Z,22.27
2023-02-21T05:43:21.521Z,23.97
2023-02-21T05:45:48.358Z,20.37
2023-02-21T05:48:15.277Z,20.73
2023-02-21T05:50:42.071Z,21.37
2023-02-21T05:53:10.428Z,20.90
2023-02-21T05:55:37.600Z,20.97
2023-02-21T05:58:04.443Z,22.13
2023-02-21T06:00:31.745Z,21.97
2023-02-21T06:02:58.470Z,21.70
2023-02-21T06:05:25.569Z,21.23
2023-02-21T06:07:52.514Z,23.30
2023-02-21T06:10:20.002Z,22.37
2023-02-21T06:12:47.405Z,24.37
2023-02-21T06:15:14.247Z,21.97
2023-02-21T06:17:42.186Z,21.67
2023-02-21T06:20:13.089Z,22.20
2023-02-21T06:22:39.773Z,22.40
2023-02-21T06:25:07.272Z,23.03
2023-02-21T06:27:33.970Z,23.90
2023-02-21T06:30:00.720Z,23.17
2023-02-21T06:32:27.764Z,24.20
2023-02-21T06:34:54.564Z,22.50
2023-02-21T06:37:21.519Z,24.30
2023-02-21T06:39:48.175Z,24.77
2023-02-21T06:42:16.245Z,25.00
2023-02-21T06:44:47.284Z,24.17
2023-02-21T06:47:14.378Z,23.77
2023-02-21T06:49:41.209Z,23.73
2023-02-21T06:52:08.608Z,24.90
2023-02-21T06:54:35.411Z,25.57
2023-02-21T06:57:02.214Z,24.47
2023-02-21T06:59:29.667Z,24.90
2023-02-21T07:01:57.197Z,24.53
2023-02-21T07:04:25.517Z,25.13
2023-02-21T07:06:52.851Z,26.37
2023-02-21T07:09:19.637Z,25.87
2023-02-21T07:11:47.175Z,25.60
2023-02-21T07:14:14.830Z,27.80
2023-02-21T07:16:41.650Z,27.30
2023-02-21T07:19:08.589Z,26.83
2023-02-21T07:21:35.325Z,26.03
2023-02-21T07:24:02.210Z,27.00
2023-02-21T07:26:28.924Z,26.30
2023-02-21T07:28:55.748Z,27.10
2023-02-21T07:31:22.855Z,27.60
2023-02-21T07:33:49.883Z,26.20
2023-02-21T07:36:17.146Z,26.77
2023-02-21T07:38:44.043Z,26.47
2023-02-21T07:41:11.193Z,27.40
2023-02-21T07:43:39.235Z,27.50
2023-02-21T07:46:13.802Z,27.30
2023-02-21T07:48:40.654Z,28.87
2023-02-21T07:51:08.583Z,28.00
2023-02-21T07:53:35.284Z,28.70
2023-02-21T07:56:03.051Z,29.87
2023-02-21T07:58:29.845Z,28.33
2023-02-21T08:00:56.707Z,28.50
2023-02-21T08:03:23.537Z,28.10
2023-02-21T08:05:50.345Z,26.90
2023-02-21T08:08:17.344Z,26.73
2023-02-21T08:10:44.235Z,28.00
2023-02-21T08:13:11.022Z,28.70
2023-02-21T08:15:37.760Z,28.23
2023-02-21T08:18:04.623Z,27.60
2023-02-21T08:20:31.828Z,28.93
2023-02-21T08:22:58.684Z,29.23
2023-02-21T08:25:25.331Z,31.03
2023-02-21T08:27:55.341Z,31.40
2023-02-21T08:30:23.284Z,34.57
2023-02-21T08:32:51.459Z,33.67
2023-02-21T08:35:20.578Z,28.07
2023-02-21T08:37:48.473Z,29.07
2023-02-21T08:40:18.676Z,30.13
2023-02-21T08:42:49.682Z,30.77
2023-02-21T08:45:18.836Z,30.33
2023-02-21T08:47:45.864Z,31.17
2023-02-21T08:50:12.659Z,34.07
2023-02-21T08:52:39.498Z,30.10
2023-02-21T08:55:07.239Z,25.30
2023-02-21T08:57:34.762Z,26.97
2023-02-21T09:00:01.927Z,26.60
2023-02-21T09:02:29.032Z,26.43
2023-02-21T09:04:55.854Z,24.67
2023-02-21T09:07:24.361Z,24.90
2023-02-21T09:09:51.184Z,26.50
2023-02-21T09:12:18.337Z,24.30
2023-02-21T09:14:45.157Z,25.90
2023-02-21T09:17:13.888Z,23.50
2023-02-21T09:19:40.931Z,26.30
2023-02-21T09:22:09.543Z,25.23
2023-02-21T09:24:36.864Z,25.60
2023-02-21T09:27:03.786Z,25.00
2023-02-21T09:29:45.033Z,24.37
2023-02-21T09:32:13.175Z,24.10
2023-02-21T09:34:40.084Z,24.10
2023-02-21T09:37:07.409Z,23.37
2023-02-21T09:39:36.718Z,23.07
2023-02-21T09:42:03.507Z,23.67
2023-02-21T09:44:30.405Z,26.77
2023-02-21T09:47:05.904Z,25.47
2023-02-21T09:49:39.390Z,23.60
2023-02-21T09:52:16.323Z,24.77
2023-02-21T09:54:51.117Z,24.23
2023-02-21T09:57:18.760Z,26.23
2023-02-21T09:59:46.171Z,24.90
2023-02-21T10:02:19.136Z,26.17
2023-02-21T10:05:18.102Z,24.20
2023-02-21T10:08:01.524Z,25.10
2023-02-21T10:10:43.590Z,26.43
2023-02-21T10:13:34.520Z,25.47
2023-02-21T10:16:24.228Z,25.97
2023-02-21T10:19:03.915Z,28.40
2023-02-21T10:21:41.412Z,25.93
2023-02-21T10:24:15.423Z,26.00
2023-02-21T10:26:49.001Z,24.40
2023-02-21T10:29:35.690Z,25.43
2023-02-21T10:32:04.275Z,25.77
2023-02-21T10:34:33.293Z,27.43
2023-02-21T10:37:25.374Z,28.03
2023-02-21T10:39:58.435Z,26.20
2023-02-21T10:42:43.636Z,27.50
2023-02-21T10:45:13.345Z,25.43
2023-02-21T10:47:55.859Z,31.53
2023-02-21T10:50:43.817Z,30.90
2023-02-21T10:53:24.780Z,32.27
2023-02-21T10:56:20.436Z,34.20
2023-02-21T10:58:53.097Z,34.07
2023-02-21T11:01:25.929Z,36.37
2023-02-21T11:04:17.023Z,35.93
2023-02-21T11:07:15.832Z,37.30
2023-02-21T11:09:44.795Z,36.77
2023-02-21T11:12:21.849Z,37.80
2023-02-21T11:15:04.495Z,35.07
2023-02-21T11:17:32.611Z,34.33
2023-02-21T11:19:59.286Z,36.83
2023-02-21T11:22:39.415Z,36.47
2023-02-21T11:25:08.868Z,36.80
2023-02-21T11:27:37.200Z,36.53
2023-02-21T11:30:15.923Z,35.40
2023-02-21T11:32:49.356Z,37.00
2023-02-21T11:35:19.065Z,34.90
2023-02-21T11:38:09.843Z,35.80
2023-02-21T11:40:53.018Z,38.33
2023-02-21T11:43:48.141Z,41.53
2023-02-21T11:46:34.150Z,37.23
2023-02-21T11:49:22.534Z,39.13
2023-02-21T11:51:51.083Z,38.63
2023-02-21T11:54:20.122Z,37.23
2023-02-21T11:56:47.768Z,37.17
2023-02-21T11:59:27.843Z,37.63
2023-02-21T12:02:02.676Z,37.20
2023-02-21T12:04:52.357Z,32.73
2023-02-21T12:07:30.263Z,36.60
2023-02-21T12:10:07.756Z,37.50
2023-02-21T12:13:00.889Z,42.13
2023-02-21T12:16:05.586Z,40.40
2023-02-21T12:19:09.309Z,38.63
2023-02-21T12:22:03.961Z,39.87
2023-02-21T12:24:56.003Z,37.97
2023-02-21T12:28:00.683Z,36.23
2023-02-21T12:30:51.043Z,38.73
2023-02-21T12:33:25.900Z,39.00
2023-02-21T12:36:37.233Z,36.13
2023-02-21T12:39:03.974Z,33.40
2023-02-21T12:41:36.103Z,33.40
2023-02-21T12:44:13.674Z,32.73
2023-02-21T12:46:50.231Z,37.10
2023-02-21T12:49:26.957Z,34.50
2023-02-21T12:52:06.700Z,33.03
2023-02-21T12:54:47.137Z,34.00
2023-02-21T12:57:24.523Z,34.60
2023-02-21T12:59:54.315Z,32.57
2023-02-21T13:02:45.705Z,32.23
2023-02-21T13:05:25.937Z,33.53
2023-02-21T13:07:57.034Z,34.00
2023-02-21T13:10:52.512Z,34.20
2023-02-21T13:13:25.675Z,32.27
2023-02-21T13:15:54.112Z,32.53
2023-02-21T13:18:29.045Z,35.70
2023-02-21T13:21:08.172Z,36.10
2023-02-21T13:24:30.865Z,35.10
2023-02-21T13:27:19.273Z,33.53
2023-02-21T13:29:46.084Z,32.80
2023-02-21T13:32:21.641Z,46.37
2023-02-21T13:34:48.457Z,33.10
2023-02-21T13:37:24.460Z,32.70
2023-02-21T13:40:01.367Z,36.00
2023-02-21T13:42:30.325Z,33.60
2023-02-21T13:45:22.812Z,33.80
2023-02-21T13:48:00.053Z,33.70
2023-02-21T13:50:39.102Z,35.13
2023-02-21T13:53:09.298Z,35.87
2023-02-21T13:55:37.496Z,36.37
2023-02-21T13:58:05.486Z,36.80
2023-02-21T14:00:32.172Z,33.60
2023-02-21T14:03:24.689Z,34.40
2023-02-21T14:05:51.312Z,32.63
2023-02-21T14:08:49.242Z,35.97
2023-02-21T14:11:28.785Z,34.20
2023-02-21T14:13:58.575Z,35.50
2023-02-21T14:16:27.285Z,35.47
2023-02-21T14:19:08.970Z,36.50
2023-02-21T14:21:42.854Z,35.63
2023-02-21T14:24:09.553Z,37.83
2023-02-21T14:26:42.733Z,35.97
2023-02-21T14:29:09.465Z,37.70
2023-02-21T14:32:08.895Z,35.87
2023-02-21T14:34:47.582Z,34.87
2023-02-21T14:37:17.301Z,35.50
2023-02-21T14:39:49.662Z,37.57
2023-02-21T14:42:22.217Z,39.93
2023-02-21T14:45:11.774Z,40.40
2023-02-21T14:47:41.619Z,38.13
2023-02-21T14:50:31.617Z,40.00
2023-02-21T14:53:33.715Z,38.47
2023-02-21T14:56:24.420Z,37.57
2023-02-21T14:59:07.961Z,38.77
2023-02-21T15:01:42.142Z,40.60
2023-02-21T15:04:24.079Z,39.20
2023-02-21T15:07:12.289Z,40.87
2023-02-21T15:09:39.054Z,41.33
2023-02-21T15:12:17.331Z,44.30
2023-02-21T15:14:50.717Z,39.73
2023-02-21T15:17:23.299Z,42.07
2023-02-21T15:20:05.737Z,40.67
2023-02-21T15:22:32.541Z,41.43
2023-02-21T15:25:07.816Z,39.43
2023-02-21T15:27:50.918Z,37.43
2023-02-21T15:30:24.715Z,39.30
2023-02-21T15:33:11.118Z,41.40
2023-02-21T15:35:43.197Z,39.07
2023-02-21T15:38:22.019Z,37.07
2023-02-21T15:40:51.063Z,34.80
2023-02-21T15:43:36.643Z,33.90
2023-02-21T15:46:05.202Z,31.23
2023-02-21T15:48:32.155Z,30.90
2023-02-21T15:51:04.658Z,31.40
2023-02-21T15:53:32.831Z,28.73
2023-02-21T15:56:17.824Z,30.50
2023-02-21T15:59:19.328Z,29.47
2023-02-21T16:02:07.267Z,29.83
2023-02-21T16:04:39.266Z,27.77
2023-02-21T16:07:14.062Z,26.97
2023-02-21T16:09:46.645Z,28.57
2023-02-21T16:12:14.184Z,30.00
2023-02-21T16:14:55.044Z,30.70
2023-02-21T16:17:29.641Z,30.77
2023-02-21T16:20:13.181Z,30.50
2023-02-21T16:23:06.370Z,31.40
2023-02-21T16:25:28.242Z,31.10
2023-02-21T16:27:57.852Z,33.00
2023-02-21T16:30:32.010Z,31.97
2023-02-21T16:33:04.388Z,32.47
2023-02-21T16:35:32.258Z,33.20
2023-02-21T16:38:00.632Z,34.67
2023-02-21T16:40:33.821Z,34.50
2023-02-21T16:43:02.228Z,36.80
2023-02-21T16:45:30.410Z,44.00
2023-02-21T16:48:02.551Z,38.60
2023-02-21T16:50:31.369Z,40.37
2023-02-21T16:52:59.910Z,40.90
2023-02-21T16:55:27.558Z,41.53
2023-02-21T16:57:59.266Z,41.57
2023-02-21T17:00:26.477Z,42.47
2023-02-21T17:02:53.520Z,40.37
2023-02-21T17:05:21.720Z,43.67
2023-02-21T17:07:49.762Z,42.60
2023-02-21T17:10:16.536Z,42.87
2023-02-21T17:12:43.695Z,45.60
2023-02-21T17:15:11.039Z,43.00
2023-02-21T17:17:38.583Z,42.90
2023-02-21T17:20:06.784Z,44.27
2023-02-21T17:22:33.772Z,42.43
2023-02-21T17:25:00.812Z,44.53
2023-02-21T17:27:27.768Z,44.17
2023-02-21T17:29:54.543Z,43.33
2023-02-21T17:32:21.327Z,41.57
2023-02-21T17:34:48.062Z,43.40
2023-02-21T17:37:14.758Z,43.30
2023-02-21T17:39:41.659Z,43.50
2023-02-21T17:42:08.376Z,43.50
2023-02-21T17:44:37.656Z,42.53
2023-02-21T17:47:07.522Z,40.10
2023-02-21T17:49:34.348Z,42.97
2023-02-21T17:52:01.053Z,42.90
2023-02-21T17:54:27.931Z,44.40
2023-02-21T17:56:54.656Z,42.90
2023-02-21T17:59:22.183Z,42.70
2023-02-21T18:01:48.928Z,41.73
2023-02-21T18:04:15.699Z,39.67
2023-02-21T18:06:43.085Z,43.07
2023-02-21T18:09:11.069Z,43.30
2023-02-21T18:11:37.880Z,42.80
2023-02-21T18:14:05.425Z,40.03
2023-02-21T18:16:32.508Z,42.70
2023-02-21T18:18:59.272Z,40.20
2023-02-21T18:21:27.434Z,42.20
2023-02-21T18:23:54.687Z,41.80
2023-02-21T18:26:21.806Z,41.30
2023-02-21T18:28:48.633Z,41.87
2023-02-21T18:31:19.915Z,41.33
2023-02-21T18:33:47.162Z,40.53
2023-02-21T18:36:13.921Z,41.93
2023-02-21T18:38:41.583Z,41.30
2023-02-21T18:41:18.354Z,44.30
2023-02-21T18:43:45.615Z,39.30
2023-02-21T18:46:15.189Z,41.73
2023-02-21T18:48:43.690Z,50.93
2023-02-21T18:51:12.322Z,66.80
2023-02-21T18:53:40.056Z,42.80
2023-02-21T18:56:11.882Z,40.97
2023-02-21T18:58:39.855Z,47.17
2023-02-21T19:01:08.913Z,41.23
2023-02-21T19:03:37.018Z,44.37
2023-02-21T19:06:04.084Z,41.40
2023-02-21T19:08:30.874Z,41.87
2023-02-21T19:10:57.599Z,51.73
2023-02-21T19:13:24.403Z,48.07
2023-02-21T19:15:51.191Z,40.70
2023-02-21T19:18:18.048Z,41.20
2023-02-21T19:20:44.797Z,41.63
2023-02-21T19:23:12.102Z,42.00
2023-02-21T19:25:39.087Z,41.00
2023-02-21T19:28:06.837Z,43.73
2023-02-21T19:30:36.604Z,44.70
2023-02-21T19:33:06.893Z,49.67
2023-02-21T19:35:35.514Z,41.10
2023-02-21T19:38:05.081Z,41.70
2023-02-21T19:40:32.466Z,40.93
2023-02-21T19:42:59.285Z,42.57
2023-02-21T19:45:26.008Z,43.27
2023-02-21T19:47:52.802Z,41.30
2023-02-21T19:50:19.845Z,41.40
2023-02-21T19:52:58.827Z,39.77
2023-02-21T19:55:27.366Z,42.63
2023-02-21T19:57:54.225Z,42.00
2023-02-21T20:00:21.334Z,39.80
2023-02-21T20:02:49.143Z,39.57
2023-02-21T20:05:16.742Z,39.80
2023-02-21T20:07:44.070Z,40.90
2023-02-21T20:10:12.397Z,40.93
2023-02-21T20:12:39.260Z,41.10
2023-02-21T20:15:07.461Z,40.90
2023-02-21T20:17:37.908Z,43.40
2023-02-21T20:20:11.374Z,41.37
2023-02-21T20:22:39.069Z,40.40
2023-02-21T20:25:06.802Z,43.07
2023-02-21T20:27:34.505Z,42.97
2023-02-21T20:30:01.192Z,46.23
2023-02-21T20:32:28.186Z,41.93
2023-02-21T20:34:56.792Z,42.07
2023-02-21T20:37:24.336Z,43.37
2023-02-21T20:39:51.436Z,44.60
2023-02-21T20:42:20.243Z,63.27
2023-02-21T20:44:48.232Z,42.30
2023-02-21T20:47:15.214Z,40.20
2023-02-21T20:49:46.302Z,42.87
2023-02-21T20:52:14.307Z,43.03
2023-02-21T20:54:41.938Z,44.53
2023-02-21T20:57:09.818Z,42.90
2023-02-21T20:59:38.847Z,44.60
2023-02-21T21:02:08.058Z,42.40
2023-02-21T21:04:38.038Z,41.53
2023-02-21T21:07:08.520Z,42.23
2023-02-21T21:09:37.605Z,42.33
2023-02-21T21:12:23.962Z,44.00
2023-02-21T21:14:54.963Z,42.17
2023-02-21T21:17:22.167Z,44.33
2023-02-21T21:19:49.582Z,44.37
2023-02-21T21:22:19.878Z,43.93
2023-02-21T21:24:46.797Z,43.73
2023-02-21T21:27:15.450Z,44.20
2023-02-21T21:29:43.925Z,41.17
2023-02-21T21:32:12.469Z,40.93
2023-02-21T21:34:43.259Z,45.07
2023-02-21T21:37:10.307Z,43.70
2023-02-21T21:39:37.548Z,46.70
2023-02-21T21:42:11.129Z,45.40
2023-02-21T21:44:39.827Z,49.87
2023-02-21T21:47:07.900Z,45.37
2023-02-21T21:49:37.649Z,54.07
2023-02-21T21:52:04.985Z,69.77
2023-02-21T21:54:36.029Z,44.33
2023-02-21T21:57:04.493Z,44.23
2023-02-21T21:59:32.617Z,42.93
2023-02-21T22:01:59.993Z,40.97
2023-02-21T22:04:27.231Z,45.90
2023-02-21T22:06:55.876Z,43.03
2023-02-21T22:09:23.146Z,38.90
2023-02-21T22:11:50.390Z,40.00
2023-02-21T22:14:19.074Z,45.63
2023-02-21T22:16:48.091Z,43.57
2023-02-21T22:19:16.156Z,40.83
2023-02-21T22:21:44.050Z,42.70
2023-02-21T22:24:11.534Z,38.83
2023-02-21T22:26:39.765Z,40.47
2023-02-21T22:29:07.626Z,38.37
2023-02-21T22:31:34.860Z,38.10
2023-02-21T22:34:02.257Z,36.57
2023-02-21T22:36:31.556Z,36.00
2023-02-21T22:38:58.456Z,37.27
2023-02-21T22:41:26.594Z,37.20
2023-02-21T22:43:55.151Z,36.60
2023-02-21T22:46:24.609Z,36.13
2023-02-21T22:48:52.024Z,40.50
2023-02-21T22:51:24.733Z,40.03
2023-02-21T22:53:51.651Z,37.13
2023-02-21T22:56:23.586Z,37.20
2023-02-21T22:58:51.289Z,33.90
2023-02-21T23:01:20.962Z,35.77
2023-02-21T23:03:48.314Z,32.53
2023-02-21T23:06:15.512Z,33.27
2023-02-21T23:08:48.066Z,33.43
2023-02-21T23:11:19.499Z,32.13
2023-02-21T23:13:46.905Z,31.70
2023-02-21T23:16:23.835Z,31.10
2023-02-21T23:18:50.664Z,30.80
2023-02-21T23:21:22.998Z,30.57
2023-02-21T23:23:50.489Z,32.30
2023-02-21T23:26:21.559Z,31.50
2023-02-21T23:28:49.444Z,31.30
2023-02-21T23:31:18.705Z,31.53
2023-02-21T23:33:49.774Z,30.80
2023-02-21T23:36:23.135Z,30.33
2023-02-21T23:38:51.191Z,32.33
2023-02-21T23:41:18.924Z,31.90
2023-02-21T23:43:46.795Z,31.13
2023-02-21T23:46:21.957Z,31.90
2023-02-21T23:48:49.788Z,31.80
2023-02-21T23:51:18.167Z,30.63
2023-02-21T23:53:45.386Z,30.33
2023-02-21T23:56:13.295Z,29.60
2023-02-21T23:58:44.377Z,30.70
